Time;durP1;ratioP1;P1;durP2;ratioP2;P2;SDS_P1;SDS_P2;PMS_P1;PMS_P2;Temp;Humidity;BMP_temperature;BMP_pressure;BME280_temperature;BME280_humidity;BME280_pressure;Samples;Min_cycle;Max_cycle;Signal;HPM_P1;HPM_P2
2022/03/19 00:00:06;;;;;;;12.63;8.93;;;;;;;4.73;100.00;103042.59;5022659;28;20026;-82
2022/03/19 00:02:31;;;;;;;15.98;8.82;;;;;;;4.61;100.00;103042.13;5022101;28;20048;-83
2022/03/19 00:05:03;;;;;;;15.25;8.55;;;;;;;4.65;100.00;103037.00;5039763;28;20097;-83
2022/03/19 00:07:32;;;;;;;16.60;9.27;;;;;;;4.60;100.00;103035.00;5040541;28;20040;-82
2022/03/19 00:10:00;;;;;;;19.10;8.82;;;;;;;4.55;100.00;103042.78;5041257;28;20493;-82
2022/03/19 00:12:26;;;;;;;15.90;9.50;;;;;;;4.51;100.00;103041.75;5041303;28;20032;-82
2022/03/19 00:14:51;;;;;;;14.48;9.05;;;;;;;4.51;100.00;103043.50;5023239;28;20022;-82
2022/03/19 00:17:20;;;;;;;17.83;9.57;;;;;;;4.47;100.00;103039.81;5041978;28;20052;-82
2022/03/19 00:19:48;;;;;;;19.05;9.93;;;;;;;4.43;100.00;103044.06;5023284;28;20112;-82
2022/03/19 00:22:14;;;;;;;14.02;9.52;;;;;;;4.37;100.00;103043.84;5024168;28;20021;-82
2022/03/19 00:24:39;;;;;;;18.63;10.00;;;;;;;4.34;100.00;103047.28;5024597;28;20509;-82
2022/03/19 00:27:05;;;;;;;18.70;9.23;;;;;;;4.38;100.00;103044.75;5041263;28;20441;-82
2022/03/19 00:29:33;;;;;;;16.85;9.60;;;;;;;4.39;100.00;103051.84;5042057;28;20490;-82
2022/03/19 00:32:04;;;;;;;17.48;10.20;;;;;;;4.39;100.00;103051.84;5042175;28;20109;-82
2022/03/19 00:34:37;;;;;;;17.20;9.98;;;;;;;4.41;100.00;103047.50;5024475;28;20510;-82
2022/03/19 00:37:02;;;;;;;18.52;9.43;;;;;;;4.36;100.00;103045.56;5042228;28;20036;-82
2022/03/19 00:39:28;;;;;;;15.95;9.10;;;;;;;4.35;100.00;103057.03;5036923;28;20022;-83
2022/03/19 00:41:59;;;;;;;17.67;10.13;;;;;;;4.34;100.00;103054.28;5041641;28;20081;-82
2022/03/19 00:44:27;;;;;;;18.33;9.23;;;;;;;4.28;100.00;103044.34;5042848;28;20194;-82
2022/03/19 00:46:55;;;;;;;14.63;9.07;;;;;;;4.24;100.00;103045.09;5042168;28;20056;-83
2022/03/19 00:49:21;;;;;;;17.75;9.68;;;;;;;4.20;100.00;103048.44;5024467;28;20055;-82
2022/03/19 00:51:55;;;;;;;18.38;9.15;;;;;;;4.20;100.00;103048.44;5042762;28;20044;-82
2022/03/19 00:54:26;;;;;;;17.50;9.55;;;;;;;4.19;100.00;103059.84;5043283;28;20033;-82
2022/03/19 00:56:51;;;;;;;22.23;9.55;;;;;;;4.16;100.00;103049.16;5042724;28;20368;-82
2022/03/19 00:59:19;;;;;;;15.90;9.70;;;;;;;4.15;100.00;103047.34;5042614;28;20087;-81
2022/03/19 01:01:47;;;;;;;16.92;9.23;;;;;;;4.13;100.00;103057.84;5025202;28;20431;-82
2022/03/19 01:04:13;;;;;;;20.10;9.32;;;;;;;4.09;100.00;103055.94;5042036;28;20063;-82
2022/03/19 01:06:39;;;;;;;14.90;8.60;;;;;;;3.99;100.00;103052.00;5043266;28;20104;-82
2022/03/19 01:09:05;;;;;;;15.80;9.45;;;;;;;3.95;100.00;103052.69;5042594;28;20071;-83
2022/03/19 01:11:30;;;;;;;22.52;9.00;;;;;;;3.97;100.00;103065.13;5042997;28;20021;-82
2022/03/19 01:13:58;;;;;;;14.73;9.27;;;;;;;3.90;100.00;103042.84;5039383;28;20363;-83
2022/03/19 01:16:27;;;;;;;17.70;9.68;;;;;;;3.88;100.00;103043.59;5021932;28;20120;-82
2022/03/19 01:18:58;;;;;;;14.57;9.18;;;;;;;3.85;100.00;103051.41;5041624;28;20028;-80
2022/03/19 01:21:27;;;;;;;17.83;8.80;;;;;;;3.85;100.00;103048.75;5042916;28;20033;-82
2022/03/19 01:23:58;;;;;;;17.50;9.20;;;;;;;3.84;100.00;103046.97;5025615;28;20080;-82
2022/03/19 01:26:24;;;;;;;20.23;9.70;;;;;;;3.78;100.00;103047.59;5026215;28;20026;-82
2022/03/19 01:28:49;;;;;;;17.08;9.00;;;;;;;3.75;100.00;103047.47;5025189;28;20532;-82
2022/03/19 01:31:15;;;;;;;18.13;9.05;;;;;;;3.70;100.00;103041.97;5025246;28;20025;-82
2022/03/19 01:33:41;;;;;;;16.25;9.05;;;;;;;3.68;100.00;103036.63;5041858;28;20030;-83
2022/03/19 01:36:11;;;;;;;16.05;8.50;;;;;;;3.57;100.00;103037.91;5041494;28;20055;-82
2022/03/19 01:38:37;;;;;;;14.90;8.70;;;;;;;3.50;100.00;103027.91;5043206;28;20051;-83
2022/03/19 01:41:03;;;;;;;19.60;8.60;;;;;;;3.44;100.00;103024.16;5043403;28;20021;-82
2022/03/19 01:43:28;;;;;;;16.98;8.45;;;;;;;3.42;100.00;103028.47;5032100;28;20025;-83
2022/03/19 01:45:54;;;;;;;16.17;8.73;;;;;;;3.34;100.00;103029.84;5048620;28;20032;-81
2022/03/19 01:48:19;;;;;;;17.98;9.23;;;;;;;3.31;100.00;103022.69;5047949;28;20384;-83
2022/03/19 01:50:44;;;;;;;18.65;9.18;;;;;;;3.29;100.00;103011.19;5019661;28;20120;-82
2022/03/19 01:53:10;;;;;;;18.42;9.50;;;;;;;3.31;100.00;103011.22;5039450;28;20039;-83
2022/03/19 01:55:35;;;;;;;15.68;9.70;;;;;;;3.31;100.00;103012.13;5042094;28;20449;-83
2022/03/19 01:58:02;;;;;;;17.42;9.32;;;;;;;3.33;100.00;103017.47;5026900;28;20021;-82
2022/03/19 02:00:28;;;;;;;17.88;9.27;;;;;;;3.34;100.00;103008.72;5026125;28;20029;-82
2022/03/19 02:02:54;;;;;;;16.77;8.70;;;;;;;3.30;100.00;103012.09;5043922;28;20022;-81
2022/03/19 02:05:22;;;;;;;16.20;9.05;;;;;;;3.15;100.00;103007.91;5031893;28;20029;-82
2022/03/19 02:07:54;;;;;;;19.45;9.55;;;;;;;3.16;100.00;103008.81;5058732;28;20009;-83
2022/03/19 02:10:22;;;;;;;15.35;8.63;;;;;;;3.05;100.00;103000.41;5058488;28;20081;-83
2022/03/19 02:12:49;;;;;;;16.00;8.32;;;;;;;2.83;100.00;103008.25;5058391;28;20029;-83
2022/03/19 02:15:15;;;;;;;14.88;8.35;;;;;;;2.77;100.00;102995.66;5058467;28;20026;-83
2022/03/19 02:17:40;;;;;;;14.63;8.35;;;;;;;2.77;100.00;102989.47;5041645;28;20042;-81
2022/03/19 02:20:07;;;;;;;15.43;7.85;;;;;;;2.67;100.00;102986.44;5041242;28;20030;-84
2022/03/19 02:22:33;;;;;;;15.30;7.93;;;;;;;2.70;100.00;102983.03;5040174;28;20009;-83
2022/03/19 02:27:43;;;;;;;16.30;8.52;;;;;;;2.68;100.00;102984.69;5057680;28;20032;-83
2022/03/19 02:30:15;;;;;;;15.55;9.07;;;;;;;2.67;100.00;102981.16;5058343;28;20026;-83
2022/03/19 02:32:47;;;;;;;19.27;8.85;;;;;;;2.70;100.00;102983.03;5064855;22;20049;-75
2022/03/19 02:35:12;;;;;;;15.15;9.35;;;;;;;2.74;100.00;102990.25;5033399;28;20036;-72
2022/03/19 02:37:46;;;;;;;19.45;9.73;;;;;;;2.76;100.00;102990.31;5033360;28;20018;-72
2022/03/19 02:40:14;;;;;;;15.38;9.52;;;;;;;2.81;100.00;102990.53;5033614;28;20017;-72
2022/03/19 02:42:40;;;;;;;17.90;9.63;;;;;;;2.81;100.00;102990.53;5033294;28;20029;-72
2022/03/19 02:45:06;;;;;;;15.40;9.20;;;;;;;2.80;100.00;102994.91;5033186;28;20076;-72
2022/03/19 02:47:32;;;;;;;18.50;9.07;;;;;;;2.78;100.00;102992.19;5033508;28;20033;-72
2022/03/19 02:49:58;;;;;;;16.40;9.05;;;;;;;2.78;100.00;102986.03;5015558;28;20371;-72
2022/03/19 02:52:23;;;;;;;17.55;8.68;;;;;;;2.81;100.00;102987.91;5033296;28;20488;-72
2022/03/19 02:54:48;;;;;;;18.80;9.18;;;;;;;2.77;100.00;102978.91;5033126;28;20026;-72
2022/03/19 02:57:14;;;;;;;15.45;8.63;;;;;;;2.74;100.00;102984.97;5033128;28;20028;-72
2022/03/19 02:59:39;;;;;;;19.55;8.88;;;;;;;2.77;100.00;102985.13;5033352;28;20070;-72
2022/03/19 03:02:05;;;;;;;16.17;8.23;;;;;;;2.77;100.00;102974.56;5033394;28;20024;-73
2022/03/19 03:04:31;;;;;;;19.85;8.73;;;;;;;2.75;100.00;102970.03;5032604;28;20036;-72
2022/03/19 03:06:59;;;;;;;13.27;7.95;;;;;;;2.71;100.00;102974.25;5015340;28;20398;-73
2022/03/19 03:09:26;;;;;;;17.90;8.65;;;;;;;2.67;100.00;102977.59;5032963;28;20029;-73
2022/03/19 03:11:52;;;;;;;18.48;9.07;;;;;;;2.60;100.00;102973.78;5032950;28;20360;-72
2022/03/19 03:14:21;;;;;;;17.30;8.93;;;;;;;2.55;100.00;102970.03;5032908;28;20090;-72
2022/03/19 03:16:51;;;;;;;19.20;8.40;;;;;;;2.58;100.00;102977.19;5033028;28;20505;-72
2022/03/19 03:19:17;;;;;;;21.52;7.93;;;;;;;2.59;100.00;102976.34;5033755;28;20087;-73
2022/03/19 03:21:43;;;;;;;17.40;7.78;;;;;;;2.51;100.00;102971.59;5032922;28;20398;-72
2022/03/19 03:24:10;;;;;;;14.85;7.95;;;;;;;2.49;100.00;102973.28;5032813;28;20562;-72
2022/03/19 03:26:37;;;;;;;17.20;8.20;;;;;;;2.44;100.00;102970.41;5032782;28;20029;-72
2022/03/19 03:29:03;;;;;;;16.45;8.00;;;;;;;2.45;100.00;102974.84;5032751;28;20025;-72
2022/03/19 03:31:28;;;;;;;19.42;8.55;;;;;;;2.42;100.00;102976.44;5032844;28;20028;-72
2022/03/19 03:33:55;;;;;;;16.98;8.10;;;;;;;2.38;100.00;102979.75;5032644;28;20039;-73
2022/03/19 03:36:21;;;;;;;14.75;8.05;;;;;;;2.36;100.00;102981.41;5033006;28;20048;-73
2022/03/19 03:38:47;;;;;;;20.88;8.30;;;;;;;2.31;100.00;102979.47;5033003;28;20382;-73
2022/03/19 03:41:12;;;;;;;21.63;8.75;;;;;;;2.22;100.00;102973.75;5032661;28;20025;-72
2022/03/19 03:43:38;;;;;;;17.55;8.45;;;;;;;2.18;100.00;102971.78;5032603;28;20036;-72
2022/03/19 03:46:04;;;;;;;18.42;8.13;;;;;;;2.12;100.00;102975.94;5014972;28;20395;-73
2022/03/19 03:48:30;;;;;;;16.42;8.18;;;;;;;2.04;100.00;102969.38;5032609;28;20029;-72
2022/03/19 03:50:57;;;;;;;18.65;8.50;;;;;;;2.02;100.00;102968.41;5032583;28;20438;-73
2022/03/19 03:53:24;;;;;;;17.80;8.27;;;;;;;2.04;100.00;102979.91;5014824;28;20017;-72
2022/03/19 03:55:50;;;;;;;18.58;8.32;;;;;;;2.07;100.00;102974.81;5014958;28;20449;-72
2022/03/19 03:58:15;;;;;;;16.73;8.25;;;;;;;2.06;100.00;102962.44;5032610;28;20055;-72
2022/03/19 04:00:40;;;;;;;20.42;8.40;;;;;;;2.09;100.00;102973.16;5014869;28;20108;-72
2022/03/19 04:03:06;;;;;;;21.48;8.18;;;;;;;2.11;100.00;102966.22;5032517;28;20434;-72
2022/03/19 04:05:33;;;;;;;18.92;8.43;;;;;;;2.11;100.00;102966.22;5032503;28;20079;-72
2022/03/19 04:07:59;;;;;;;21.88;8.48;;;;;;;2.09;100.00;102964.31;5032476;28;20056;-72
2022/03/19 04:10:24;;;;;;;20.58;8.70;;;;;;;2.15;100.00;102971.63;5032461;28;20061;-72
2022/03/19 04:12:50;;;;;;;15.45;8.60;;;;;;;2.09;100.00;102967.88;5014758;28;20017;-73
2022/03/19 04:15:18;;;;;;;21.98;9.15;;;;;;;2.11;100.00;102965.34;5033529;28;20029;-73
2022/03/19 04:17:43;;;;;;;25.50;9.45;;;;;;;2.10;100.00;102963.50;5018482;28;20463;-72
2022/03/19 04:20:09;;;;;;;22.98;9.50;;;;;;;2.05;100.00;102955.38;5035911;28;20474;-73
2022/03/19 04:22:45;;;;;;;25.58;8.95;;;;;;;2.06;100.00;102958.94;5035848;28;20116;-72
2022/03/19 04:25:14;;;;;;;17.13;8.45;;;;;;;2.09;100.00;102959.97;5035591;28;20030;-72
2022/03/19 04:27:44;;;;;;;20.73;9.63;;;;;;;2.03;100.00;102962.31;5035974;28;20028;-73
2022/03/19 04:30:14;;;;;;;19.52;7.78;;;;;;;1.92;100.00;102952.97;5017939;28;20022;-72
2022/03/19 04:32:57;;;;;;;23.73;9.00;;;;;;;1.77;100.00;102960.22;5017914;28;20021;-72
2022/03/19 04:38:12;;;;;;;23.73;8.85;;;;;;;1.69;100.00;102965.91;5035952;28;20521;-73
2022/03/19 04:40:39;;;;;;;20.05;8.80;;;;;;;1.69;100.00;102960.63;5017755;28;20055;-72
2022/03/19 04:43:05;;;;;;;16.02;8.75;;;;;;;1.64;100.00;102969.22;5035580;28;20025;-72
2022/03/19 04:45:30;;;;;;;19.23;8.90;;;;;;;1.64;100.00;102953.41;5035440;28;20025;-72
2022/03/19 04:47:56;;;;;;;24.10;9.68;;;;;;;1.65;100.00;102960.47;5035455;28;20022;-73
2022/03/19 04:50:22;;;;;;;25.55;9.90;;;;;;;1.65;100.00;102959.59;5035313;28;20030;-73
2022/03/19 04:52:49;;;;;;;25.05;9.73;;;;;;;1.69;100.00;102955.38;5017570;28;20486;-74
2022/03/19 04:55:14;;;;;;;27.33;10.95;;;;;;;1.69;100.00;102960.63;5035167;28;20029;-74
2022/03/19 04:57:40;;;;;;;25.63;10.70;;;;;;;1.72;100.00;102961.69;5035181;28;20032;-73
2022/03/19 05:00:08;;;;;;;23.38;10.32;;;;;;;1.72;100.00;102966.06;5017453;28;20053;-73
2022/03/19 05:02:34;;;;;;;26.60;9.82;;;;;;;1.73;100.00;102966.13;5035096;28;20017;-73
2022/03/19 05:05:00;;;;;;;23.20;9.93;;;;;;;1.73;100.00;102973.13;5017236;28;20052;-73
2022/03/19 05:07:26;;;;;;;24.38;9.63;;;;;;;1.69;100.00;102971.16;5034989;28;20380;-73
2022/03/19 05:12:44;;;;;;;24.23;8.57;;;;;;;1.62;100.00;102981.41;5035102;28;20036;-73
2022/03/19 05:15:16;;;;;;;22.63;8.55;;;;;;;1.59;100.00;102975.97;5034855;28;20021;-73
2022/03/19 05:17:43;;;;;;;23.48;9.75;;;;;;;1.52;100.00;102971.22;5035135;28;20064;-73
2022/03/19 05:20:10;;;;;;;27.35;9.20;;;;;;;1.49;100.00;102973.69;5034698;28;20060;-73
2022/03/19 05:22:35;;;;;;;21.65;8.98;;;;;;;1.40;100.00;102974.13;5034795;28;20021;-73
2022/03/19 05:25:01;;;;;;;21.88;9.25;;;;;;;1.33;100.00;102978.16;5034904;28;20033;-73
2022/03/19 05:27:27;;;;;;;22.25;9.27;;;;;;;1.29;100.00;102976.22;5034373;28;20498;-73
2022/03/19 05:29:53;;;;;;;20.95;8.32;;;;;;;1.24;100.00;102975.94;5016784;28;20022;-73
2022/03/19 05:32:19;;;;;;;23.25;9.23;;;;;;;1.18;100.00;102987.09;5034583;28;20033;-73
2022/03/19 05:34:45;;;;;;;20.83;8.50;;;;;;;1.13;100.00;102985.03;5034403;28;20596;-72
2022/03/19 05:37:11;;;;;;;20.08;9.05;;;;;;;1.07;100.00;102977.69;5034477;28;20033;-73
2022/03/19 05:39:36;;;;;;;17.70;8.63;;;;;;;1.04;100.00;102974.91;5034430;28;20025;-72
2022/03/19 05:42:03;;;;;;;24.58;9.15;;;;;;;1.04;100.00;102974.91;5034335;28;20027;-73
2022/03/19 05:44:28;;;;;;;21.13;8.50;;;;;;;0.95;100.00;102983.22;5034251;28;20025;-72
2022/03/19 05:46:53;;;;;;;18.27;8.60;;;;;;;0.96;100.00;102988.56;5016597;28;20078;-72
2022/03/19 05:49:19;;;;;;;17.50;7.78;;;;;;;0.95;100.00;102984.13;5016536;28;20022;-72
2022/03/19 05:51:44;;;;;;;23.42;8.60;;;;;;;0.90;100.00;102996.13;5034481;28;20112;-72
2022/03/19 05:54:10;;;;;;;22.85;8.95;;;;;;;1.02;100.00;102985.34;5034311;28;20025;-72
2022/03/19 05:56:36;;;;;;;23.13;9.73;;;;;;;1.15;100.00;102993.91;5034146;28;20389;-73
2022/03/19 05:59:03;;;;;;;22.20;9.50;;;;;;;1.17;100.00;102985.25;5034319;28;20025;-73
2022/03/19 06:01:28;;;;;;;23.75;9.40;;;;;;;1.24;100.00;102990.88;5033937;28;20397;-73
2022/03/19 06:03:58;;;;;;;23.20;9.20;;;;;;;1.31;100.00;102995.63;5034171;28;20493;-73
2022/03/19 06:06:27;;;;;;;19.73;8.90;;;;;;;1.34;100.00;102990.53;5034498;28;20017;-73
2022/03/19 06:08:52;;;;;;;23.42;9.20;;;;;;;1.37;100.00;102995.00;5033795;28;20025;-73
2022/03/19 06:11:18;;;;;;;20.63;9.20;;;;;;;1.39;100.00;102996.91;5034046;28;20029;-73
2022/03/19 06:13:43;;;;;;;23.70;8.63;;;;;;;1.37;100.00;103001.19;5016015;28;20064;-74
2022/03/19 06:16:09;;;;;;;26.98;9.27;;;;;;;1.38;100.00;102997.75;5016080;28;20075;-74
2022/03/19 06:18:35;;;;;;;21.25;8.45;;;;;;;1.39;100.00;103004.81;5016048;28;20029;-74
2022/03/19 06:21:00;;;;;;;19.02;7.97;;;;;;;1.36;100.00;102998.50;5033669;28;20021;-74
2022/03/19 06:23:25;;;;;;;26.42;8.77;;;;;;;1.37;100.00;103001.19;5033536;28;20028;-74
2022/03/19 06:25:52;;;;;;;22.65;8.55;;;;;;;1.38;100.00;103000.38;5015943;28;20104;-73
2022/03/19 06:28:17;;;;;;;20.00;8.80;;;;;;;1.39;100.00;102999.53;5033538;28;20025;-73
2022/03/19 06:30:43;;;;;;;22.48;8.75;;;;;;;1.41;100.00;102997.91;5033762;28;20033;-73
2022/03/19 06:33:09;;;;;;;19.75;8.50;;;;;;;1.47;100.00;102997.31;5033249;28;20033;-73
2022/03/19 06:38:23;;;;;;;22.23;8.32;;;;;;;1.51;100.00;103004.56;5033349;28;20028;-73
2022/03/19 06:40:49;;;;;;;23.52;9.27;;;;;;;1.56;100.00;103007.44;5016556;28;20022;-73
2022/03/19 06:43:14;;;;;;;20.65;8.82;;;;;;;1.58;100.00;103005.78;5033616;28;20032;-73
2022/03/19 06:45:39;;;;;;;19.92;7.63;;;;;;;1.60;100.00;103006.75;5033318;28;20091;-74
2022/03/19 06:48:05;;;;;;;18.85;8.30;;;;;;;1.65;100.00;103007.88;5015505;28;20029;-73
2022/03/19 06:50:30;;;;;;;26.40;7.95;;;;;;;1.69;100.00;102997.50;5033162;28;20026;-74
2022/03/19 06:52:55;;;;;;;19.52;8.18;;;;;;;1.76;100.00;103000.53;5033105;28;20039;-73
2022/03/19 06:55:21;;;;;;;24.60;8.70;;;;;;;1.81;100.00;103003.41;5015489;28;20028;-73
2022/03/19 06:57:46;;;;;;;19.15;8.93;;;;;;;1.85;100.00;103000.13;5033184;28;20540;-73
2022/03/19 07:00:12;;;;;;;24.00;8.07;;;;;;;1.91;100.00;102999.50;5015426;28;20025;-73
2022/03/19 07:02:51;;;;;;;21.48;8.48;;;;;;;1.94;100.00;102994.38;5033070;28;20434;-73
2022/03/19 07:05:21;;;;;;;21.92;8.55;;;;;;;1.98;100.00;102998.09;5033643;28;20021;-73
2022/03/19 07:07:47;;;;;;;20.05;8.75;;;;;;;2.04;100.00;102989.56;5033108;28;20029;-73
2022/03/19 07:10:13;;;;;;;18.55;7.43;;;;;;;2.18;100.00;102992.88;5032954;28;20053;-73
2022/03/19 07:12:49;;;;;;;23.13;7.32;;;;;;;2.25;100.00;102995.00;5032899;28;20508;-73
2022/03/19 07:15:16;;;;;;;21.05;7.43;;;;;;;2.37;100.00;102999.06;5032882;28;20380;-73
2022/03/19 07:17:43;;;;;;;17.95;7.30;;;;;;;2.42;100.00;103001.06;5032956;28;20021;-73
2022/03/19 07:20:10;;;;;;;19.85;7.28;;;;;;;2.52;100.00;102988.34;5032816;28;20021;-73
2022/03/19 07:22:55;;;;;;;18.85;7.47;;;;;;;2.62;100.00;102987.03;5015063;28;20026;-73
2022/03/19 07:25:24;;;;;;;14.63;6.57;;;;;;;2.71;100.00;102992.72;5032814;28;20466;-73
2022/03/19 07:27:51;;;;;;;18.33;7.35;;;;;;;2.85;100.00;102988.09;5032855;28;20040;-73
2022/03/19 07:30:17;;;;;;;20.75;7.55;;;;;;;2.95;100.00;102992.06;5033002;28;20022;-73
2022/03/19 07:32:43;;;;;;;22.25;7.72;;;;;;;3.03;100.00;102994.16;5032664;28;20059;-73
2022/03/19 07:35:09;;;;;;;16.50;7.18;;;;;;;3.16;100.00;102993.88;5032784;28;20053;-72
2022/03/19 07:37:34;;;;;;;15.93;7.35;;;;;;;3.27;100.00;102985.53;5032902;28;20099;-73
2022/03/19 07:40:00;;;;;;;19.50;6.32;;;;;;;3.32;100.00;102973.44;5033039;28;20467;-73
2022/03/19 07:42:26;;;;;;;22.17;6.93;;;;;;;3.39;100.00;102980.78;5014974;28;20108;-73
2022/03/19 07:44:52;;;;;;;18.67;6.57;;;;;;;3.50;100.00;102985.63;5032654;28;20068;-73
2022/03/19 07:47:18;;;;;;;18.08;6.78;;;;;;;3.55;100.00;102986.72;5032715;28;20105;-73
2022/03/19 07:49:43;;;;;;;14.10;6.32;;;;;;;3.65;100.00;102988.03;5034231;28;20072;-73
2022/03/19 07:52:09;;;;;;;19.40;6.85;;;;;;;3.75;100.00;102986.66;5036451;28;20041;-73
2022/03/19 07:54:36;;;;;;;18.02;7.05;;;;;;;3.82;100.00;102977.25;5036371;28;20033;-72
2022/03/19 07:57:02;;;;;;;21.48;6.70;;;;;;;3.91;100.00;102975.91;5036424;28;20058;-73
2022/03/19 07:59:28;;;;;;;17.67;6.55;;;;;;;3.97;100.00;102977.88;5036573;28;20052;-73
2022/03/19 08:01:54;;;;;;;25.52;6.97;;;;;;;4.01;100.00;102974.56;5018504;28;20057;-73
2022/03/19 08:04:19;;;;;;;17.98;6.95;;;;;;;4.17;100.00;102971.63;5036389;28;20513;-72
2022/03/19 08:06:45;;;;;;;22.45;5.85;;;;;;;4.22;100.00;102967.41;5036117;28;20393;-72
2022/03/19 08:09:10;;;;;;;17.05;6.07;;;;;;;4.33;100.00;102966.09;5036044;28;20080;-73
2022/03/19 08:11:36;;;;;;;20.60;6.22;;;;;;;4.28;100.00;102964.13;5018274;28;20024;-73
2022/03/19 08:14:03;;;;;;;17.00;6.00;;;;;;;4.33;100.00;102960.78;5036008;28;20025;-73
2022/03/19 08:16:28;;;;;;;20.55;6.13;;;;;;;4.47;100.00;102961.34;5035955;28;20100;-73
2022/03/19 08:18:54;;;;;;;18.85;5.80;;;;;;;4.54;100.00;102957.19;5035978;28;20060;-73
2022/03/19 08:21:19;;;;;;;21.58;6.55;;;;;;;4.64;100.00;102968.16;5035929;28;20017;-73
2022/03/19 08:23:47;;;;;;;14.57;5.35;;;;;;;4.74;100.00;102958.81;5036182;28;20021;-72
2022/03/19 08:26:12;;;;;;;20.50;5.72;;;;;;;4.93;100.00;102960.38;5017986;28;20026;-73
2022/03/19 08:28:38;;;;;;;14.40;5.05;;;;;;;4.99;100.00;102960.63;5017879;28;20024;-73
2022/03/19 08:31:03;;;;;;;15.38;5.85;;;;;;;5.14;100.00;102964.66;5035694;28;20112;-73
2022/03/19 08:33:32;;;;;;;16.08;5.25;;;;;;;5.09;98.82;102955.63;5081385;22;20111;-86
2022/03/19 08:35:57;;;;;;;15.68;4.72;;;;;;;5.20;99.12;102970.19;5037593;28;20041;-83
2022/03/19 08:41:13;;;;;;;15.27;5.63;;;;;;;5.40;100.00;102958.47;5040037;28;20087;-86
2022/03/19 08:43:38;;;;;;;21.48;6.05;;;;;;;5.55;99.07;102952.81;5021726;28;20436;-87
2022/03/19 08:46:04;;;;;;;13.65;4.82;;;;;;;5.62;97.60;102957.47;5022178;28;20029;-86
2022/03/19 08:48:38;;;;;;;12.75;4.60;;;;;;;5.87;97.40;102953.00;5022899;28;20017;-87
2022/03/19 08:53:48;;;;;;;;;;;;;;;5.77;93.85;102950.88;5037590;28;20036;-86
2022/03/19 08:56:13;;;;;;;14.65;4.63;;;;;;;5.92;94.55;102946.09;5037773;28;19913;-86
2022/03/19 08:58:46;;;;;;;20.80;5.40;;;;;;;5.98;92.82;102953.31;5039459;28;20024;-86
2022/03/19 09:01:12;;;;;;;15.55;4.65;;;;;;;6.09;92.67;102951.06;5036057;28;20079;-86
2022/03/19 09:03:38;;;;;;;12.63;4.88;;;;;;;6.31;91.77;102950.84;5036156;28;20026;-87
2022/03/19 09:06:03;;;;;;;13.75;5.47;;;;;;;6.06;90.90;102937.66;5036905;28;20099;-86
2022/03/19 09:08:29;;;;;;;16.02;4.55;;;;;;;6.42;91.45;102940.53;5038430;28;20104;-85
2022/03/19 09:13:53;;;;;;;16.27;4.72;;;;;;;6.43;87.21;102931.72;5027167;28;20399;-86
2022/03/19 09:16:19;;;;;;;12.88;4.50;;;;;;;6.52;84.41;102934.66;5023640;28;20457;-86
2022/03/19 09:18:44;;;;;;;11.25;4.20;;;;;;;6.51;86.14;102930.22;5042420;28;20474;-86
2022/03/19 09:21:19;;;;;;;15.25;4.53;;;;;;;6.70;86.85;102925.44;5024700;28;20025;-86
2022/03/19 09:23:45;;;;;;;11.23;3.80;;;;;;;6.81;84.29;102929.28;5028914;23;20084;-79
2022/03/19 09:26:12;;;;;;;13.10;3.85;;;;;;;6.92;82.06;102936.66;5019313;28;20029;-79
2022/03/19 09:28:37;;;;;;;13.80;4.38;;;;;;;6.94;84.02;102924.31;5036954;28;20028;-79
2022/03/19 09:31:03;;;;;;;14.02;4.95;;;;;;;7.08;82.59;102932.69;5021242;28;20018;-79
2022/03/19 09:33:28;;;;;;;13.18;4.25;;;;;;;7.15;82.94;102924.03;5021625;28;20037;-79
2022/03/19 09:35:54;;;;;;;12.05;4.60;;;;;;;7.02;82.72;102925.44;5038591;28;20084;-79
2022/03/19 09:38:19;;;;;;;11.50;4.10;;;;;;;7.29;82.26;102925.25;5039656;28;20018;-79
2022/03/19 09:40:45;;;;;;;11.20;4.35;;;;;;;7.30;78.17;102916.41;5021421;28;20445;-80
2022/03/19 09:43:10;;;;;;;12.27;3.90;;;;;;;7.28;77.73;102923.44;5020699;28;20021;-80
2022/03/19 09:45:38;;;;;;;11.45;3.70;;;;;;;7.55;76.18;102914.41;5039017;28;20036;-80
2022/03/19 09:48:04;;;;;;;12.80;4.20;;;;;;;7.70;78.17;102922.75;5039820;28;20048;-81
2022/03/19 09:50:29;;;;;;;12.48;3.65;;;;;;;7.93;76.42;102918.84;5040210;28;20379;-81
2022/03/19 09:52:57;;;;;;;10.77;3.08;;;;;;;8.11;71.84;102913.06;5021246;28;20033;-81
2022/03/19 09:55:26;;;;;;;10.45;3.28;;;;;;;8.03;72.12;102906.66;5022153;28;20122;-80
2022/03/19 09:57:52;;;;;;;11.10;3.13;;;;;;;8.27;72.58;102908.09;5039499;28;20021;-81
2022/03/19 10:00:19;;;;;;;12.02;2.90;;;;;;;7.86;70.00;102900.94;5047079;28;20037;-80
2022/03/19 10:03:04;;;;;;;7.65;2.38;;;;;;;8.00;66.97;102903.91;5035516;28;20040;-81
2022/03/19 10:11:01;;;;;;;8.38;2.22;;;;;;;8.46;65.43;102897.81;5054267;28;20048;-80
2022/03/19 10:13:26;;;;;;;7.97;1.80;;;;;;;8.87;64.25;102893.31;5029443;28;20100;-79
2022/03/19 10:15:52;;;;;;;6.40;1.70;;;;;;;8.60;60.50;102901.72;5049558;28;20474;-81
2022/03/19 10:18:17;;;;;;;5.35;1.55;;;;;;;8.75;60.54;102897.53;5031701;28;20029;-80
2022/03/19 10:20:43;;;;;;;5.57;1.60;;;;;;;8.36;62.47;102900.28;5030938;28;20104;-81
2022/03/19 10:23:08;;;;;;;6.13;1.73;;;;;;;8.45;64.06;102894.25;5032022;28;20025;-80
2022/03/19 10:25:34;;;;;;;5.15;1.77;;;;;;;8.69;61.92;102885.00;5033338;28;20367;-80
2022/03/19 10:28:02;;;;;;;6.72;1.73;;;;;;;8.71;63.07;102882.38;5033608;28;20036;-79
2022/03/19 10:30:35;;;;;;;5.15;1.40;;;;;;;8.63;58.41;102879.56;5032835;28;20044;-80
2022/03/19 10:33:00;;;;;;;4.30;1.70;;;;;;;8.70;58.07;102877.91;5051624;28;20089;-81
2022/03/19 10:35:33;;;;;;;9.38;2.17;;;;;;;8.23;59.29;102874.25;5050874;28;20029;-81
2022/03/19 10:38:01;;;;;;;7.15;1.85;;;;;;;8.62;58.20;102872.44;5033434;28;20390;-80
2022/03/19 10:40:41;;;;;;;5.07;1.75;;;;;;;8.76;56.42;102870.00;5034151;28;20013;-81
2022/03/19 10:43:08;;;;;;;6.30;1.80;;;;;;;9.25;57.78;102857.59;5050983;28;20079;-81
2022/03/19 10:45:42;;;;;;;5.32;1.90;;;;;;;9.10;57.74;102859.09;5051271;28;20026;-80
2022/03/19 10:48:07;;;;;;;6.00;1.63;;;;;;;8.96;56.59;102856.19;5025844;28;20029;-80
2022/03/19 10:50:32;;;;;;;6.30;2.00;;;;;;;9.02;57.64;102856.28;5023559;28;20029;-80
2022/03/19 10:52:59;;;;;;;4.85;2.00;;;;;;;9.23;56.50;102852.22;5049146;28;20030;-80
2022/03/19 10:55:24;;;;;;;7.90;2.30;;;;;;;9.43;56.82;102851.63;5050514;28;20438;-81
2022/03/19 10:57:50;;;;;;;6.22;2.03;;;;;;;9.62;57.91;102846.59;5051235;28;20486;-80
2022/03/19 11:00:16;;;;;;;4.95;1.85;;;;;;;9.20;56.27;102844.16;5052569;28;20032;-82
2022/03/19 11:02:46;;;;;;;4.40;1.80;;;;;;;9.25;56.48;102837.13;5054259;28;20029;-81
2022/03/19 11:05:12;;;;;;;6.05;2.20;;;;;;;9.22;57.35;102842.44;5051182;28;20086;-80
2022/03/19 11:07:42;;;;;;;6.97;2.10;;;;;;;9.34;57.75;102840.81;5049227;28;20022;-80
2022/03/19 11:10:08;;;;;;;5.75;2.28;;;;;;;9.63;61.92;102827.06;5032200;28;20378;-82
2022/03/19 11:12:34;;;;;;;7.80;2.15;;;;;;;9.67;56.46;102822.66;5032279;28;20112;-81
2022/03/19 11:15:04;;;;;;;9.07;2.35;;;;;;;9.54;57.96;102829.56;5031920;28;20017;-81
2022/03/19 11:17:33;;;;;;;5.03;2.08;;;;;;;10.04;59.10;102827.63;5033905;28;20028;-82
2022/03/19 11:20:04;;;;;;;7.72;2.08;;;;;;;10.37;57.88;102815.56;5034986;28;20047;-82
2022/03/19 11:22:39;;;;;;;7.95;2.35;;;;;;;10.13;57.97;102810.81;5035763;28;20115;-82
2022/03/19 11:25:25;;;;;;;6.88;2.20;;;;;;;10.09;55.04;102809.88;5023550;28;20036;-79
2022/03/19 11:27:53;;;;;;;5.60;2.30;;;;;;;10.23;55.47;102806.50;5048728;28;20405;-80
2022/03/19 11:30:23;;;;;;;6.88;2.00;;;;;;;10.30;55.65;102802.13;5034365;28;20021;-80
2022/03/19 11:33:17;;;;;;;7.10;2.55;;;;;;;10.23;56.09;102806.50;5051968;28;20089;-81
2022/03/19 11:36:03;;;;;;;7.10;2.25;;;;;;;10.14;55.83;102792.16;5033379;28;20049;-80
2022/03/19 11:38:31;;;;;;;7.38;2.40;;;;;;;10.24;55.26;102787.81;5035156;28;20021;-82
2022/03/19 11:40:57;;;;;;;9.80;2.67;;;;;;;10.22;55.60;102786.00;5052521;28;20036;-80
2022/03/19 11:43:34;;;;;;;5.47;2.05;;;;;;;10.08;53.75;102777.81;5035708;28;20043;-80